Time;durP1;ratioP1;P1;durP2;ratioP2;P2;SDS_P1;SDS_P2;PMS_P1;PMS_P2;Temp;Humidity;BMP_temperature;BMP_pressure;BME280_temperature;BME280_humidity;BME280_pressure;Samples;Min_cycle;Max_cycle;Signal;HPM_P1;HPM_P2
2022/09/01 00:01:02;;;;;;;14.43;12.03;;;33.20;55.00;;;;;;5084242;28;20469;-66
2022/09/01 00:03:33;;;;;;;13.50;12.03;;;33.30;53.00;;;;;;5084135;28;20451;-66
2022/09/01 00:06:08;;;;;;;11.60;10.27;;;33.30;54.20;;;;;;5083219;28;20435;-66
2022/09/01 00:08:40;;;;;;;16.07;11.10;;;33.10;53.60;;;;;;5084225;28;20449;-66
2022/09/01 00:11:11;;;;;;;11.00;9.40;;;33.20;54.40;;;;;;5084223;28;20456;-66
2022/09/01 00:13:42;;;;;;;13.23;11.67;;;33.20;53.10;;;;;;5083888;28;20823;-66
2022/09/01 00:16:15;;;;;;;13.30;12.00;;;33.10;53.30;;;;;;5084069;28;20450;-66
2022/09/01 00:18:48;;;;;;;12.43;11.13;;;33.20;52.40;;;;;;5083702;28;20486;-66
2022/09/01 00:21:22;;;;;;;11.47;10.13;;;33.20;54.20;;;;;;5083208;28;20431;-66
2022/09/01 00:23:55;;;;;;;12.23;10.90;;;33.30;53.70;;;;;;5084323;28;20465;-66
2022/09/01 00:26:25;;;;;;;11.00;9.90;;;33.20;54.40;;;;;;5083729;28;20460;-66
2022/09/01 00:28:56;;;;;;;12.30;10.67;;;33.10;54.30;;;;;;5083823;28;20459;-66
2022/09/01 00:31:28;;;;;;;13.23;11.30;;;32.90;55.40;;;;;;5083721;28;20443;-66
2022/09/01 00:33:58;;;;;;;14.77;11.27;;;32.90;53.70;;;;;;5083601;28;20496;-66
2022/09/01 00:36:29;;;;;;;15.40;11.10;;;32.80;54.20;;;;;;5083130;28;20466;-66
2022/09/01 00:39:02;;;;;;;13.67;11.53;;;32.70;55.80;;;;;;5083803;28;20905;-66
2022/09/01 00:41:35;;;;;;;13.30;10.73;;;32.60;55.20;;;;;;5083576;28;20461;-66
2022/09/01 00:44:07;;;;;;;11.90;10.63;;;32.60;54.40;;;;;;5083306;28;20474;-66
2022/09/01 00:46:40;;;;;;;11.00;9.90;;;32.50;55.30;;;;;;5083261;28;20451;-66
2022/09/01 00:49:28;;;;;;;11.77;9.90;;;32.50;54.40;;;;;;5083465;28;20439;-66
2022/09/01 00:52:02;;;;;;;11.43;9.63;;;32.50;54.90;;;;;;5082819;28;20446;-66
2022/09/01 00:54:40;;;;;;;12.57;11.27;;;32.50;54.90;;;;;;5083782;28;20438;-65
2022/09/01 00:57:12;;;;;;;12.23;10.73;;;32.50;53.50;;;;;;5083287;28;20423;-66
2022/09/01 00:59:48;;;;;;;13.53;11.13;;;32.40;54.50;;;;;;5083050;28;20494;-66
2022/09/01 01:02:19;;;;;;;14.03;11.87;;;32.50;54.40;;;;;;5083372;28;20453;-66
2022/09/01 01:04:51;;;;;;;14.80;11.33;;;32.60;57.80;;;;;;5083469;28;20477;-66
2022/09/01 01:07:26;;;;;;;14.83;11.77;;;32.50;56.60;;;;;;5082471;28;20456;-66
2022/09/01 01:09:58;;;;;;;13.10;10.90;;;32.40;55.70;;;;;;5082163;28;20448;-66
2022/09/01 01:12:29;;;;;;;12.70;11.33;;;32.40;53.60;;;;;;5083411;28;20430;-66
2022/09/01 01:15:02;;;;;;;13.90;11.83;;;32.40;56.30;;;;;;5083084;28;20457;-66
2022/09/01 01:17:34;;;;;;;12.43;10.73;;;32.30;58.00;;;;;;5082844;28;20454;-66
2022/09/01 01:23:06;;;;;;;14.33;11.93;;;32.10;53.90;;;;;;5082496;28;20456;-66
2022/09/01 01:25:41;;;;;;;14.00;11.17;;;32.20;54.20;;;;;;5083299;28;20460;-66
2022/09/01 01:28:15;;;;;;;12.33;11.00;;;31.90;60.60;;;;;;5083278;28;20450;-66
2022/09/01 01:30:49;;;;;;;13.60;11.57;;;31.70;58.50;;;;;;5082992;28;20442;-66
2022/09/01 01:33:21;;;;;;;11.40;10.20;;;31.70;56.70;;;;;;5083224;28;20492;-66
2022/09/01 01:35:56;;;;;;;14.07;11.97;;;31.60;62.00;;;;;;5082138;28;20530;-66
2022/09/01 01:38:29;;;;;;;14.37;12.00;;;31.40;60.00;;;;;;5082922;28;20516;-66
2022/09/01 01:41:02;;;;;;;14.10;11.57;;;31.50;55.90;;;;;;5082827;28;20451;-66
2022/09/01 01:43:33;;;;;;;14.00;10.97;;;31.50;57.40;;;;;;5082638;28;20701;-66
2022/09/01 01:46:06;;;;;;;14.13;11.67;;;31.40;58.00;;;;;;5083093;28;20439;-66
2022/09/01 01:48:40;;;;;;;16.57;11.97;;;31.30;61.00;;;;;;5082972;28;20513;-66
2022/09/01 01:51:12;;;;;;;14.23;10.80;;;31.10;59.20;;;;;;5081714;28;20464;-66
2022/09/01 01:53:43;;;;;;;8.43;5.90;;;31.00;62.20;;;;;;5082918;28;20445;-66
2022/09/01 01:56:17;;;;;;;5.53;4.93;;;30.90;68.30;;;;;;5082732;28;20450;-66
2022/09/01 01:58:48;;;;;;;4.97;4.07;;;30.60;71.30;;;;;;5082604;28;20494;-66
2022/09/01 02:01:18;;;;;;;4.20;3.90;;;30.30;73.80;;;;;;5082884;28;20448;-66
2022/09/01 02:03:51;;;;;;;3.10;2.83;;;30.00;75.30;;;;;;5083146;28;20443;-66
2022/09/01 02:06:23;;;;;;;4.30;2.80;;;29.80;76.00;;;;;;5081964;28;20454;-66
2022/09/01 02:08:56;;;;;;;2.57;2.37;;;29.40;77.70;;;;;;5082928;28;20454;-66
2022/09/01 02:11:31;;;;;;;2.40;2.10;;;29.20;78.60;;;;;;5082532;28;20846;-66
2022/09/01 02:14:02;;;;;;;2.37;2.27;;;29.00;80.10;;;;;;5082742;28;20459;-65
2022/09/01 02:16:33;;;;;;;3.90;2.90;;;28.80;81.40;;;;;;5083041;28;20424;-66
2022/09/01 02:19:07;;;;;;;2.70;2.20;;;28.70;81.80;;;;;;5082567;28;20846;-66
2022/09/01 02:21:43;;;;;;;2.90;2.70;;;28.50;82.50;;;;;;5083152;28;20472;-66
2022/09/01 02:24:14;;;;;;;3.10;1.93;;;28.40;82.90;;;;;;5086279;28;20449;-66
2022/09/01 02:26:47;;;;;;;2.23;1.93;;;28.30;83.80;;;;;;5085856;28;20449;-66
2022/09/01 02:29:22;;;;;;;2.30;2.10;;;28.20;84.80;;;;;;5086137;28;20452;-65
2022/09/01 02:31:54;;;;;;;2.30;2.13;;;28.00;85.70;;;;;;5085675;28;20455;-66
2022/09/01 02:34:27;;;;;;;1.90;1.80;;;27.80;86.80;;;;;;5086382;28;20824;-65
2022/09/01 02:36:59;;;;;;;2.10;2.00;;;27.70;86.80;;;;;;5085090;28;20449;-66
2022/09/01 02:39:32;;;;;;;1.97;1.87;;;27.40;87.80;;;;;;5086108;28;20517;-65
2022/09/01 02:42:05;;;;;;;2.20;2.10;;;27.30;89.00;;;;;;5085394;28;20463;-65
2022/09/01 02:44:35;;;;;;;2.30;2.10;;;27.20;90.00;;;;;;5085845;28;20452;-65
2022/09/01 02:47:10;;;;;;;2.13;1.93;;;27.00;90.30;;;;;;5085628;28;20431;-66
2022/09/01 02:49:41;;;;;;;2.17;2.07;;;27.00;90.50;;;;;;5085838;28;20453;-65
2022/09/01 02:52:14;;;;;;;2.20;2.10;;;26.90;90.50;;;;;;5084708;28;20454;-65
2022/09/01 02:54:47;;;;;;;1.77;1.67;;;26.70;90.80;;;;;;5086131;28;20436;-65
2022/09/01 02:57:23;;;;;;;2.00;1.90;;;26.50;91.50;;;;;;5085472;28;20454;-65
2022/09/01 02:59:57;;;;;;;1.87;1.77;;;26.30;91.70;;;;;;5085461;28;20498;-66
2022/09/01 03:02:28;;;;;;;2.03;1.93;;;26.30;92.10;;;;;;5085169;28;20449;-66
2022/09/01 03:05:00;;;;;;;2.20;1.70;;;26.20;92.50;;;;;;5086198;28;20423;-65
2022/09/01 03:07:31;;;;;;;1.60;1.50;;;26.10;92.60;;;;;;5085227;28;20479;-65
2022/09/01 03:10:08;;;;;;;1.87;1.77;;;25.90;93.20;;;;;;5085803;28;20469;-65
2022/09/01 03:12:40;;;;;;;1.70;1.60;;;25.80;93.90;;;;;;5084987;28;20955;-65
2022/09/01 03:15:12;;;;;;;1.67;1.50;;;25.70;94.30;;;;;;5085659;28;20448;-65
2022/09/01 03:17:42;;;;;;;2.03;1.83;;;25.60;94.20;;;;;;5085171;28;20452;-66
2022/09/01 03:20:13;;;;;;;1.83;1.73;;;25.40;94.60;;;;;;5085504;28;20485;-65
2022/09/01 03:22:46;;;;;;;2.27;2.07;;;25.30;95.10;;;;;;5084707;28;20457;-65
2022/09/01 03:25:17;;;;;;;2.10;2.00;;;25.20;95.60;;;;;;5085318;28;20959;-65
2022/09/01 03:27:50;;;;;;;2.10;1.90;;;25.10;96.00;;;;;;5085048;28;20449;-65
2022/09/01 03:30:21;;;;;;;1.80;1.70;;;25.00;96.20;;;;;;5085112;28;20443;-65
2022/09/01 03:32:52;;;;;;;9.00;1.87;;;25.00;96.30;;;;;;5084012;28;20454;-65
2022/09/01 03:35:24;;;;;;;1.70;1.60;;;24.90;96.80;;;;;;5085335;28;20951;-65
2022/09/01 03:37:57;;;;;;;1.90;1.80;;;24.80;97.10;;;;;;5084328;28;20455;-65
2022/09/01 03:40:32;;;;;;;2.13;1.93;;;24.70;97.20;;;;;;5084817;28;20505;-65
2022/09/01 03:43:08;;;;;;;2.20;1.80;;;24.60;97.60;;;;;;5084621;28;20481;-65
2022/09/01 03:45:39;;;;;;;2.17;2.07;;;24.50;97.90;;;;;;5085105;28;20447;-65
2022/09/01 03:48:11;;;;;;;2.60;2.03;;;24.40;98.50;;;;;;5084676;28;20458;-65
2022/09/01 03:50:45;;;;;;;2.07;1.97;;;24.20;98.70;;;;;;5084852;28;20436;-65
2022/09/01 03:53:18;;;;;;;2.70;2.50;;;24.10;99.20;;;;;;5084820;28;20448;-65
2022/09/01 03:55:53;;;;;;;2.70;2.20;;;24.00;99.80;;;;;;5084615;28;20458;-65
2022/09/01 03:58:26;;;;;;;3.63;2.30;;;23.90;99.90;;;;;;5084605;28;20443;-65
2022/09/01 04:01:01;;;;;;;3.27;2.37;;;23.80;99.90;;;;;;5084360;28;20525;-65
2022/09/01 04:03:34;;;;;;;2.10;1.90;;;23.70;99.90;;;;;;5084209;28;20451;-65
2022/09/01 04:06:11;;;;;;;2.03;1.93;;;23.60;99.90;;;;;;5083671;28;20442;-65
2022/09/01 04:08:42;;;;;;;3.30;2.80;;;23.50;99.90;;;;;;5084581;28;20462;-65
2022/09/01 04:11:17;;;;;;;3.73;2.03;;;23.40;99.90;;;;;;5084008;28;20447;-65
2022/09/01 04:13:49;;;;;;;1.80;1.70;;;23.30;99.90;;;;;;5083844;28;20458;-65
2022/09/01 04:19:18;;;;;;;2.53;2.27;;;23.20;99.90;;;;;;5084043;28;20455;-66
2022/09/01 04:21:51;;;;;;;3.17;2.80;;;23.10;99.90;;;;;;5083528;28;20947;-65
2022/09/01 04:24:23;;;;;;;2.20;1.87;;;23.00;99.90;;;;;;5084121;28;20455;-65
2022/09/01 04:26:55;;;;;;;3.03;2.73;;;23.00;99.90;;;;;;5084401;28;20448;-66
2022/09/01 04:29:28;;;;;;;2.87;2.30;;;23.00;99.90;;;;;;5084152;28;20454;-65
2022/09/01 04:32:02;;;;;;;2.70;2.30;;;22.80;99.90;;;;;;5084051;28;20447;-65
2022/09/01 04:34:37;;;;;;;3.53;2.10;;;22.70;99.90;;;;;;5083632;28;20688;-66
2022/09/01 04:37:13;;;;;;;2.40;2.20;;;22.60;99.90;;;;;;5083374;28;20459;-65
2022/09/01 04:39:51;;;;;;;2.40;2.20;;;22.50;99.90;;;;;;5083884;28;20487;-66
2022/09/01 04:42:27;;;;;;;5.93;2.20;;;22.40;99.90;;;;;;5083650;28;20557;-65
2022/09/01 04:45:01;;;;;;;2.43;2.23;;;22.40;99.90;;;;;;5083715;28;20547;-65
2022/09/01 04:47:40;;;;;;;2.57;2.20;;;22.40;99.90;;;;;;5083760;28;20439;-65
2022/09/01 04:50:16;;;;;;;2.73;2.43;;;22.30;99.90;;;;;;5083747;28;20447;-65
2022/09/01 04:52:48;;;;;;;2.60;2.40;;;22.30;99.90;;;;;;5082982;28;20454;-65
2022/09/01 04:55:19;;;;;;;2.93;2.40;;;22.20;99.90;;;;;;5083477;28;20919;-65
2022/09/01 04:57:50;;;;;;;3.13;2.83;;;22.10;99.90;;;;;;5083291;28;20440;-65
2022/09/01 05:00:24;;;;;;;2.40;2.07;;;22.00;99.90;;;;;;5083671;28;20482;-65
2022/09/01 05:03:01;;;;;;;2.63;2.43;;;22.00;99.90;;;;;;5083233;28;20447;-65
2022/09/01 05:05:41;;;;;;;3.33;2.53;;;21.90;99.90;;;;;;5083370;28;20456;-65
2022/09/01 05:08:13;;;;;;;3.37;2.33;;;21.90;99.90;;;;;;5083312;28;20451;-65
2022/09/01 05:10:55;;;;;;;3.00;2.63;;;21.80;99.90;;;;;;5083390;28;20443;-66
2022/09/01 05:13:26;;;;;;;3.30;2.50;;;21.70;99.90;;;;;;5083068;28;20850;-66
2022/09/01 05:16:05;;;;;;;2.80;2.20;;;21.60;99.90;;;;;;5083256;28;20751;-66
2022/09/01 05:18:35;;;;;;;3.80;2.77;;;21.50;99.90;;;;;;5083559;28;20450;-66
2022/09/01 05:21:09;;;;;;;3.53;2.97;;;21.40;99.90;;;;;;5082495;28;20499;-66
2022/09/01 05:23:41;;;;;;;3.37;2.67;;;21.40;99.90;;;;;;5083194;28;20422;-66
2022/09/01 05:26:16;;;;;;;3.43;2.40;;;21.40;99.90;;;;;;5083219;28;20443;-66
2022/09/01 05:28:49;;;;;;;3.80;2.60;;;21.30;99.90;;;;;;5083034;28;20464;-66
2022/09/01 05:31:22;;;;;;;3.30;2.83;;;21.20;99.90;;;;;;5082957;28;20428;-66
2022/09/01 05:33:53;;;;;;;3.10;2.80;;;21.20;99.90;;;;;;5082971;28;20418;-65
2022/09/01 05:36:25;;;;;;;4.70;3.10;;;21.10;99.90;;;;;;5082452;28;20965;-65
2022/09/01 05:38:57;;;;;;;3.87;2.90;;;21.10;99.90;;;;;;5083274;28;20415;-66
2022/09/01 05:41:28;;;;;;;4.27;3.00;;;21.00;99.90;;;;;;5082808;28;20476;-66
2022/09/01 05:43:59;;;;;;;3.43;2.80;;;21.00;99.90;;;;;;5082532;28;20449;-66
2022/09/01 05:46:32;;;;;;;4.33;2.43;;;20.90;99.90;;;;;;5082804;28;20440;-66
2022/09/01 05:49:05;;;;;;;2.67;2.47;;;20.80;99.90;;;;;;5083210;28;20440;-65
2022/09/01 05:51:36;;;;;;;3.00;2.60;;;20.80;99.90;;;;;;5082457;28;20451;-66
2022/09/01 05:54:21;;;;;;;2.77;2.50;;;20.70;99.90;;;;;;5082709;28;20447;-66
2022/09/01 05:56:53;;;;;;;3.30;2.87;;;20.70;99.90;;;;;;5084545;28;20470;-66
2022/09/01 05:59:25;;;;;;;4.30;2.70;;;20.60;99.90;;;;;;5086896;28;20447;-66
2022/09/01 06:01:57;;;;;;;4.23;2.87;;;20.60;99.90;;;;;;5086515;28;20469;-66
2022/09/01 06:04:28;;;;;;;3.70;2.60;;;20.50;99.90;;;;;;5086966;28;20448;-65
2022/09/01 06:06:59;;;;;;;3.90;3.00;;;20.50;99.90;;;;;;5086240;28;20414;-66
2022/09/01 06:09:39;;;;;;;4.80;3.13;;;20.40;99.90;;;;;;5086558;28;20447;-66
2022/09/01 06:12:16;;;;;;;3.23;2.93;;;20.40;99.90;;;;;;5086320;28;20434;-66
2022/09/01 06:14:48;;;;;;;2.93;2.60;;;20.20;99.90;;;;;;5086211;28;20521;-66
2022/09/01 06:17:23;;;;;;;3.13;2.83;;;20.20;99.90;;;;;;5086209;28;20448;-65
2022/09/01 06:19:56;;;;;;;3.63;2.90;;;20.20;99.90;;;;;;5086418;28;20424;-66
2022/09/01 06:22:28;;;;;;;3.17;2.90;;;20.20;99.90;;;;;;5085654;28;21011;-65
2022/09/01 06:24:59;;;;;;;4.10;3.17;;;20.20;99.90;;;;;;5086131;28;20566;-65
2022/09/01 06:27:32;;;;;;;3.53;2.70;;;20.20;99.90;;;;;;5086100;28;20538;-65
2022/09/01 06:30:13;;;;;;;5.67;2.97;;;20.10;99.90;;;;;;5086343;28;20428;-65
2022/09/01 06:32:48;;;;;;;2.73;2.53;;;20.10;99.90;;;;;;5086077;28;20422;-65
2022/09/01 06:35:19;;;;;;;3.07;2.77;;;20.20;99.90;;;;;;5086234;28;20437;-65
2022/09/01 06:37:50;;;;;;;3.87;2.97;;;20.10;99.90;;;;;;5085587;28;20412;-65
2022/09/01 06:40:24;;;;;;;4.60;3.93;;;20.10;99.90;;;;;;5086106;28;20892;-65
2022/09/01 06:42:55;;;;;;;3.60;2.73;;;20.10;99.90;;;;;;5085631;28;20475;-66
2022/09/01 06:45:26;;;;;;;5.03;3.53;;;20.00;99.90;;;;;;5085607;28;20421;-65
2022/09/01 06:47:58;;;;;;;3.73;3.30;;;20.00;99.90;;;;;;5085751;28;20459;-65
2022/09/01 06:50:29;;;;;;;5.00;3.33;;;19.90;99.90;;;;;;5086014;28;20511;-66
2022/09/01 06:53:20;;;;;;;3.50;3.20;;;19.80;99.90;;;;;;5085736;28;20487;-65
2022/09/01 06:56:12;;;;;;;4.80;3.50;;;19.90;99.90;;;;;;5085566;28;20795;-65
2022/09/01 06:58:46;;;;;;;3.90;3.50;;;19.80;99.90;;;;;;5086032;28;20444;-65
2022/09/01 07:01:19;;;;;;;3.93;3.07;;;19.80;99.90;;;;;;5085473;28;20461;-65
2022/09/01 07:03:54;;;;;;;4.20;3.80;;;19.70;99.90;;;;;;5085647;28;20417;-65
2022/09/01 07:06:28;;;;;;;5.77;3.30;;;19.70;99.90;;;;;;5084952;28;20460;-65
2022/09/01 07:09:19;;;;;;;4.73;3.50;;;19.60;99.90;;;;;;5084383;28;20501;-65
2022/09/01 07:12:10;;;;;;;4.07;3.23;;;19.60;99.90;;;;;;5085242;28;20468;-65
2022/09/01 07:14:58;;;;;;;7.10;4.30;;;19.50;99.90;;;;;;5085212;28;20452;-65
2022/09/01 07:17:51;;;;;;;4.20;3.47;;;19.50;99.90;;;;;;5085237;28;20418;-66
2022/09/01 07:20:25;;;;;;;4.17;3.47;;;19.40;99.90;;;;;;5085738;28;20506;-65
2022/09/01 07:22:59;;;;;;;4.90;3.90;;;19.40;99.90;;;;;;5084806;28;20456;-65
2022/09/01 07:25:54;;;;;;;4.50;4.07;;;19.30;99.90;;;;;;5084795;28;20440;-65
2022/09/01 07:28:33;;;;;;;6.10;3.90;;;19.30;99.90;;;;;;5085070;28;20507;-65
2022/09/01 07:31:07;;;;;;;6.33;3.70;;;19.20;99.90;;;;;;5085107;28;20461;-65
2022/09/01 07:34:00;;;;;;;4.27;3.70;;;19.20;99.90;;;;;;5084765;28;20520;-65
2022/09/01 07:36:58;;;;;;;4.33;3.40;;;19.30;99.90;;;;;;5084009;28;20447;-65
2022/09/01 07:39:50;;;;;;;4.20;3.20;;;19.30;99.90;;;;;;5084937;28;20418;-65
2022/09/01 07:42:22;;;;;;;3.80;3.30;;;19.30;99.90;;;;;;5084275;28;20507;-65
2022/09/01 07:45:16;;;;;;;5.40;4.23;;;19.30;99.90;;;;;;5084633;28;20426;-64
2022/09/01 07:48:05;;;;;;;6.27;4.00;;;19.20;99.90;;;;;;5084482;28;20492;-64
2022/09/01 07:50:38;;;;;;;4.87;3.60;;;19.10;99.90;;;;;;5084882;28;20754;-63
2022/09/01 07:53:32;;;;;;;5.53;3.60;;;19.00;99.90;;;;;;5084852;28;20406;-64
2022/09/01 07:56:08;;;;;;;5.37;3.67;;;19.10;99.90;;;;;;5084365;28;20421;-64
2022/09/01 07:58:40;;;;;;;5.97;3.70;;;19.10;99.90;;;;;;5084609;28;20861;-63
2022/09/01 08:01:16;;;;;;;4.90;3.80;;;19.10;99.90;;;;;;5084075;28;20461;-65
2022/09/01 08:03:48;;;;;;;5.73;4.00;;;19.00;99.90;;;;;;5084241;28;20478;-64
2022/09/01 08:06:21;;;;;;;5.07;4.20;;;18.90;99.90;;;;;;5083499;28;20448;-64
2022/09/01 08:08:57;;;;;;;4.10;3.53;;;18.90;99.90;;;;;;5084441;28;20439;-64
2022/09/01 08:11:31;;;;;;;4.70;4.13;;;18.90;99.90;;;;;;5083904;28;20402;-64
2022/09/01 08:14:22;;;;;;;5.80;4.47;;;18.80;99.90;;;;;;5083853;28;20525;-64
2022/09/01 08:16:53;;;;;;;7.33;4.67;;;18.80;99.90;;;;;;5083689;28;20491;-64
2022/09/01 08:19:24;;;;;;;4.80;3.93;;;18.70;99.90;;;;;;5083622;28;20452;-64
2022/09/01 08:21:55;;;;;;;4.83;4.33;;;18.60;99.90;;;;;;5083222;28;20466;-64
2022/09/01 08:24:27;;;;;;;6.20;4.07;;;18.60;99.90;;;;;;5083834;28;20447;-65
2022/09/01 08:26:58;;;;;;;6.17;4.40;;;18.60;99.90;;;;;;5083675;28;20454;-64
2022/09/01 08:29:28;;;;;;;6.60;4.73;;;18.60;99.90;;;;;;5083743;28;20447;-64
2022/09/01 08:31:59;;;;;;;4.57;3.40;;;18.60;99.90;;;;;;5083428;28;20502;-64
2022/09/01 08:34:32;;;;;;;4.80;4.30;;;18.50;99.90;;;;;;5083667;28;20903;-64
2022/09/01 08:37:03;;;;;;;6.63;4.93;;;18.40;99.90;;;;;;5082791;28;20455;-64
2022/09/01 08:39:36;;;;;;;4.63;4.13;;;18.40;99.90;;;;;;5083559;28;20428;-64
2022/09/01 08:42:14;;;;;;;7.00;4.50;;;18.40;99.90;;;;;;5083474;28;20483;-65
2022/09/01 08:44:54;;;;;;;4.43;4.00;;;18.40;99.90;;;;;;5083582;28;20459;-64
2022/09/01 08:47:26;;;;;;;5.63;4.30;;;18.40;99.90;;;;;;5082911;28;20444;-64
2022/09/01 08:50:11;;;;;;;6.93;4.17;;;18.30;99.90;;;;;;5083418;28;20439;-64
2022/09/01 08:52:45;;;;;;;5.33;3.93;;;18.30;99.90;;;;;;5082586;28;20454;-63
2022/09/01 08:55:24;;;;;;;4.43;4.00;;;18.30;99.90;;;;;;5083526;28;20542;-64
2022/09/01 08:57:57;;;;;;;4.53;3.70;;;18.30;99.90;;;;;;5082930;28;20421;-64
2022/09/01 09:00:31;;;;;;;5.33;3.77;;;18.20;99.90;;;;;;5083637;28;20406;-64
2022/09/01 09:03:12;;;;;;;5.87;4.23;;;18.20;99.90;;;;;;5083003;28;20956;-64
2022/09/01 09:06:00;;;;;;;5.53;3.57;;;18.10;99.90;;;;;;5083046;28;20519;-64
2022/09/01 09:08:51;;;;;;;5.23;4.30;;;18.10;99.90;;;;;;5083062;28;20433;-64
2022/09/01 09:12:00;;;;;;;5.03;4.53;;;18.00;99.90;;;;;;5083229;28;20435;-64
2022/09/01 09:14:46;;;;;;;5.50;4.73;;;18.00;99.90;;;;;;5073514;28;20442;-64
2022/09/01 09:17:20;;;;;;;5.67;4.80;;;17.90;99.90;;;;;;5082813;28;20434;-64
2022/09/01 09:19:51;;;;;;;5.80;4.30;;;17.90;99.90;;;;;;5083094;28;20426;-64
2022/09/01 09:22:22;;;;;;;5.57;4.67;;;17.90;99.90;;;;;;5082340;28;20479;-64
2022/09/01 09:24:56;;;;;;;5.97;4.43;;;17.90;99.90;;;;;;5083357;28;20443;-65
2022/09/01 09:27:30;;;;;;;6.33;4.10;;;17.90;99.90;;;;;;5082682;28;20458;-64
2022/09/01 09:30:02;;;;;;;6.37;4.17;;;17.80;99.90;;;;;;5083072;28;20458;-64
2022/09/01 09:32:48;;;;;;;6.30;4.80;;;17.80;99.90;;;;;;5086140;28;20417;-64
2022/09/01 09:35:41;;;;;;;6.97;3.80;;;17.70;99.90;;;;;;5086932;28;20451;-64
2022/09/01 09:38:27;;;;;;;6.90;4.03;;;17.70;99.90;;;;;;5086879;28;20458;-64
2022/09/01 09:41:03;;;;;;;5.63;4.40;;;17.70;99.90;;;;;;5086981;28;20558;-64
2022/09/01 09:43:57;;;;;;;4.73;3.60;;;17.80;99.90;;;;;;5086458;28;20610;-65
2022/09/01 09:46:36;;;;;;;6.70;4.60;;;17.80;99.90;;;;;;5086896;28;20466;-65
2022/09/01 09:49:13;;;;;;;4.03;3.43;;;17.70;99.90;;;;;;5087068;28;20439;-64
2022/09/01 09:51:47;;;;;;;5.03;3.63;;;17.70;99.90;;;;;;5086090;28;20447;-64
2022/09/01 09:54:22;;;;;;;4.57;3.80;;;17.50;99.90;;;;;;5086730;28;20454;-64
2022/09/01 09:57:10;;;;;;;6.63;4.30;;;17.50;99.90;;;;;;5086360;28;20433;-64
2022/09/01 09:59:47;;;;;;;5.83;3.63;;;17.50;99.90;;;;;;5086516;28;20445;-64
2022/09/01 10:02:35;;;;;;;5.50;4.00;;;17.50;99.90;;;;;;5086373;28;20482;-64
2022/09/01 10:05:28;;;;;;;6.23;4.40;;;17.40;99.90;;;;;;5086689;28;20443;-64
2022/09/01 10:07:59;;;;;;;6.30;3.77;;;17.50;99.90;;;;;;5085573;28;20444;-65
2022/09/01 10:10:38;;;;;;;6.40;4.60;;;17.50;99.90;;;;;;5086745;28;20570;-64
2022/09/01 10:13:12;;;;;;;6.30;3.73;;;17.50;99.90;;;;;;5086439;28;20432;-64
2022/09/01 10:15:49;;;;;;;6.83;4.77;;;17.30;99.90;;;;;;5086286;28;20454;-64
2022/09/01 10:18:22;;;;;;;7.60;4.30;;;17.30;99.90;;;;;;5086023;28;20435;-64
2022/09/01 10:21:03;;;;;;;6.13;4.07;;;17.20;99.90;;;;;;5085591;28;20443;-64
2022/09/01 10:23:37;;;;;;;6.33;3.70;;;17.10;99.90;;;;;;5085984;28;20487;-64
2022/09/01 10:26:14;;;;;;;4.10;3.70;;;17.10;99.90;;;;;;5086021;28;20391;-65
2022/09/01 10:28:53;;;;;;;6.20;4.47;;;17.00;99.90;;;;;;5086216;28;20439;-65
2022/09/01 10:31:26;;;;;;;6.50;4.43;;;17.10;99.90;;;;;;5086269;28;20436;-64
2022/09/01 10:34:04;;;;;;;5.63;5.00;;;17.00;99.90;;;;;;5085977;28;20425;-65
2022/09/01 10:36:36;;;;;;;5.47;4.30;;;17.00;99.90;;;;;;5085455;28;20448;-65
2022/09/01 10:39:12;;;;;;;5.77;4.27;;;17.00;99.90;;;;;;5085522;28;20457;-65
2022/09/01 10:41:52;;;;;;;4.67;3.90;;;17.00;99.90;;;;;;5085423;28;20443;-65
2022/09/01 10:44:32;;;;;;;5.30;4.10;;;17.00;99.90;;;;;;5085538;28;20491;-65
2022/09/01 10:47:13;;;;;;;8.23;4.20;;;17.00;99.90;;;;;;5085802;28;20443;-65
2022/09/01 10:50:01;;;;;;;6.53;4.63;;;17.00;99.90;;;;;;5086112;28;20439;-64
2022/09/01 10:53:06;;;;;;;6.23;4.33;;;16.90;99.90;;;;;;5085104;28;20424;-64
2022/09/01 10:56:02;;;;;;;5.10;4.13;;;16.90;99.90;;;;;;5085715;28;20531;-64
2022/09/01 10:59:08;;;;;;;6.20;4.20;;;16.90;99.90;;;;;;5085657;28;20512;-63
2022/09/01 11:02:20;;;;;;;5.00;4.50;;;16.80;99.90;;;;;;5085006;28;20447;-64
2022/09/01 11:05:16;;;;;;;4.47;3.70;;;16.80;99.90;;;;;;5085993;28;20479;-65
2022/09/01 11:07:47;;;;;;;7.23;4.63;;;16.70;99.90;;;;;;5084996;28;20507;-64
2022/09/01 11:10:55;;;;;;;6.13;4.60;;;16.70;99.90;;;;;;5085441;28;20786;-64
2022/09/01 11:13:45;;;;;;;5.63;4.10;;;16.70;99.90;;;;;;5085221;28;20548;-65
2022/09/01 11:16:38;;;;;;;6.20;4.83;;;16.70;99.90;;;;;;5085174;28;20448;-64
2022/09/01 11:19:42;;;;;;;6.07;4.90;;;16.60;99.90;;;;;;5085021;28;20414;-64
2022/09/01 11:22:29;;;;;;;6.27;4.37;;;16.60;99.90;;;;;;5084229;28;20443;-65
2022/09/01 11:25:32;;;;;;;7.17;4.57;;;16.60;99.90;;;;;;5085073;28;20494;-64
2022/09/01 11:28:35;;;;;;;5.93;4.10;;;16.60;99.90;;;;;;5084876;28;20458;-64
2022/09/01 11:31:26;;;;;;;5.07;4.17;;;16.70;99.90;;;;;;5084729;28;20814;-65
2022/09/01 11:34:22;;;;;;;5.93;4.53;;;16.70;99.90;;;;;;5084848;28;20448;-65
2022/09/01 11:37:03;;;;;;;7.30;5.00;;;16.60;99.90;;;;;;5084291;28;20447;-64
2022/09/01 11:39:43;;;;;;;6.70;4.07;;;16.60;99.90;;;;;;5084644;28;20447;-64
2022/09/01 11:42:20;;;;;;;7.83;5.20;;;16.50;99.90;;;;;;5084473;28;20422;-65
2022/09/01 11:44:58;;;;;;;7.77;4.43;;;16.50;99.90;;;;;;5084800;28;20506;-64
2022/09/01 11:47:32;;;;;;;6.97;5.87;;;16.50;99.90;;;;;;5084962;28;20526;-65
2022/09/01 11:50:05;;;;;;;6.43;5.30;;;16.40;99.90;;;;;;5084445;28;20435;-64
2022/09/01 11:52:40;;;;;;;6.43;4.90;;;16.40;99.90;;;;;;5083893;28;20440;-64
2022/09/01 11:55:11;;;;;;;6.73;5.30;;;16.40;99.90;;;;;;5083915;28;20455;-64
2022/09/01 11:57:42;;;;;;;6.43;5.80;;;16.40;99.90;;;;;;5084297;28;20444;-64
2022/09/01 12:00:15;;;;;;;6.30;5.47;;;16.30;99.90;;;;;;5084289;28;20443;-64
2022/09/01 12:02:48;;;;;;;8.10;6.23;;;16.30;99.90;;;;;;5084433;28;20439;-64
2022/09/01 12:05:32;;;;;;;7.50;4.93;;;16.40;99.90;;;;;;5084308;28;20989;-64
2022/09/01 12:08:12;;;;;;;10.77;5.73;;;16.50;99.90;;;;;;5083509;28;20796;-64
2022/09/01 12:10:44;;;;;;;10.83;7.17;;;16.50;99.90;;;;;;5083955;28;20466;-65
2022/09/01 12:13:20;;;;;;;6.53;5.80;;;16.60;99.90;;;;;;5083844;28;20454;-64
2022/09/01 12:15:56;;;;;;;9.40;6.80;;;16.70;99.90;;;;;;5083899;28;20550;-65
2022/09/01 12:18:47;;;;;;;7.50;5.80;;;16.70;99.90;;;;;;5084209;28;20463;-64
2022/09/01 12:21:23;;;;;;;10.47;7.87;;;16.70;99.90;;;;;;5083283;28;20455;-64
2022/09/01 12:24:10;;;;;;;10.23;7.30;;;16.70;99.90;;;;;;5083957;28;20482;-65
2022/09/01 12:26:41;;;;;;;10.43;7.60;;;16.80;99.90;;;;;;5083452;28;20451;-65
2022/09/01 12:29:13;;;;;;;12.83;8.33;;;16.90;99.90;;;;;;5083867;28;20454;-65
2022/09/01 12:31:47;;;;;;;9.33;7.20;;;17.00;99.90;;;;;;5083527;28;20618;-65
2022/09/01 12:34:39;;;;;;;9.13;8.13;;;17.00;99.90;;;;;;5083890;28;20448;-65
2022/09/01 12:37:13;;;;;;;9.33;8.07;;;17.00;99.90;;;;;;5082788;28;20455;-65
2022/09/01 12:39:47;;;;;;;12.20;7.43;;;17.10;99.90;;;;;;5083302;28;20439;-65
2022/09/01 12:42:28;;;;;;;10.63;8.20;;;17.00;99.90;;;;;;5083665;28;20439;-64
2022/09/01 12:45:12;;;;;;;10.97;7.70;;;17.10;99.90;;;;;;5083837;28;20497;-64
2022/09/01 12:47:48;;;;;;;10.77;8.17;;;17.10;99.90;;;;;;5083012;28;20459;-65
2022/09/01 12:50:49;;;;;;;10.20;8.03;;;17.10;99.90;;;;;;5083312;28;20433;-65
2022/09/01 12:53:27;;;;;;;12.63;9.30;;;17.10;99.90;;;;;;5083467;28;20454;-64
2022/09/01 12:56:20;;;;;;;11.17;7.40;;;17.10;99.90;;;;;;5083296;28;20471;-65
2022/09/01 12:59:03;;;;;;;9.50;7.27;;;17.20;99.90;;;;;;5083476;28;20458;-64
2022/09/01 13:01:42;;;;;;;9.27;6.67;;;17.20;99.90;;;;;;5082996;28;20439;-64
2022/09/01 13:04:26;;;;;;;9.53;7.37;;;17.20;99.90;;;;;;5083491;28;20507;-65
2022/09/01 13:07:03;;;;;;;10.17;7.73;;;17.20;99.90;;;;;;5082920;28;20449;-64
2022/09/01 13:09:33;;;;;;;10.53;8.10;;;17.20;99.90;;;;;;5083455;28;20442;-64
2022/09/01 13:12:19;;;;;;;10.63;7.47;;;17.30;99.90;;;;;;5082772;28;20508;-64
2022/09/01 13:14:50;;;;;;;9.93;7.27;;;17.20;99.90;;;;;;5082992;28;20418;-64
2022/09/01 13:17:21;;;;;;;10.67;7.90;;;17.20;99.90;;;;;;5083138;28;20448;-64
2022/09/01 13:19:52;;;;;;;8.37;6.13;;;17.30;99.90;;;;;;5083124;28;20886;-64
2022/09/01 13:22:23;;;;;;;10.63;7.87;;;17.20;99.90;;;;;;5082461;28;20432;-65
2022/09/01 13:24:54;;;;;;;10.80;6.80;;;17.30;99.90;;;;;;5083422;28;20456;-65
2022/09/01 13:27:27;;;;;;;16.53;7.93;;;17.20;99.90;;;;;;5082879;28;20481;-64
2022/09/01 13:29:58;;;;;;;10.63;8.27;;;17.30;99.90;;;;;;5083121;28;20437;-65
2022/09/01 13:32:29;;;;;;;10.73;7.80;;;17.20;99.90;;;;;;5082679;28;20418;-64
2022/09/01 13:35:00;;;;;;;10.70;7.33;;;17.30;99.90;;;;;;5083009;28;20445;-65
2022/09/01 13:37:31;;;;;;;10.83;7.57;;;17.30;99.90;;;;;;5082324;28;20526;-65